Huvudsida
METAR-TAF:

METAR-TAF

Flygplatser :

Kajana flygplats

Kajana, Finland

latitud: 64-17N, longitud: 027-41E, höjd: 143 m

Aktuellt väderrapport

Denna rapport gjordes för 17 minuter sedan, klockan 19:20 UTC
Vind 4 kt från sydost, varierande mellan ost och syd
Temperatur 16°C
Fuktighet 82%
Tryck 1015 hPa
Sikt 10 km eller mer
Inga moln under 1 500 m eller inga cumulonimbus

METAR: EFKI 251920Z AUTO 14004KT 100V170 CAVOK 16/13 Q1015

Tid: 22:37 (19:37 UTC)

Väderprognos

Denna rapport gjordes för 11 timmar och 4 minuter sedan, klockan 08:33 UTC
Prognos gäller från 25 kl. 09 UTC till 25 kl. 12 UTC
Vind 5 kt från ost
Sikt 10 km eller mer
Inga moln under 1 500 m eller inga cumulonimbus

TAF: EFKI 250833Z 2509/2512 10005KT CAVOK

Aktuella väderrapporter och prognoser från 4000 flygplatser (METAR- och TAF-rapporter).

De tillgängliga stationerna syns som gula och röda prickar på kartan.

För musen över prickarna för att se namnen på stationerna.

Klicka sedan för att få väderrapporter och prognoser.

För att ändra kartan: Klicka på de gröna knapparna med ett svart kors på för att zooma in; den gröna knappen med ett streck på för att zooma ut; eller på de gröna pilarna för angränsande kartor.


METAR-TAF: